createdAt,value
2022-11-03T00:01:01.646Z,19.83
2022-11-03T00:04:11.062Z,19.95
2022-11-03T00:07:13.268Z,19.87
2022-11-03T00:10:16.217Z,19.92
2022-11-03T00:13:18.445Z,19.95
2022-11-03T00:16:22.527Z,19.95
2022-11-03T00:19:25.015Z,19.95
2022-11-03T00:22:29.549Z,19.82
2022-11-03T00:25:32.028Z,19.81
2022-11-03T00:28:35.328Z,19.78
2022-11-03T00:31:39.789Z,19.83
2022-11-03T00:34:42.618Z,19.79
2022-11-03T00:37:44.775Z,19.79
2022-11-03T00:40:55.642Z,19.82
2022-11-03T00:43:58.705Z,19.75
2022-11-03T00:47:02.785Z,19.71
2022-11-03T00:50:05.278Z,19.51
2022-11-03T00:53:08.004Z,19.50
2022-11-03T00:56:14.381Z,19.65
2022-11-03T00:59:17.424Z,19.59
2022-11-03T01:02:19.839Z,19.61
2022-11-03T01:05:48.794Z,19.62
2022-11-03T01:08:51.283Z,19.57
2022-11-03T01:12:02.446Z,19.50
2022-11-03T01:15:04.847Z,19.52
2022-11-03T01:18:07.320Z,19.51
2022-11-03T01:21:09.564Z,19.52
2022-11-03T01:24:12.506Z,19.58
2022-11-03T01:27:21.212Z,19.55
2022-11-03T01:30:23.640Z,19.50
2022-11-03T01:33:28.105Z,19.51
2022-11-03T01:36:30.676Z,19.47
2022-11-03T01:39:33.086Z,19.31
2022-11-03T01:42:35.654Z,19.25
2022-11-03T01:45:38.000Z,19.20
2022-11-03T01:48:45.767Z,19.24
2022-11-03T01:51:55.618Z,19.21
2022-11-03T01:55:03.789Z,19.14
2022-11-03T01:58:21.094Z,18.86
2022-11-03T02:01:24.015Z,19.01
2022-11-03T02:04:31.640Z,19.10
2022-11-03T02:07:40.369Z,19.06
2022-11-03T02:10:42.673Z,19.07
2022-11-03T02:13:44.923Z,19.12
2022-11-03T02:16:54.827Z,19.06
2022-11-03T02:20:13.981Z,19.07
2022-11-03T02:23:34.601Z,19.01
2022-11-03T02:26:38.627Z,18.96
2022-11-03T02:29:40.611Z,18.70
2022-11-03T02:32:56.810Z,18.81
2022-11-03T02:36:21.299Z,18.59
2022-11-03T02:39:48.534Z,18.76
2022-11-03T02:42:53.401Z,18.80
2022-11-03T02:45:57.551Z,18.96
2022-11-03T02:48:59.629Z,18.96
2022-11-03T02:52:04.326Z,19.06
2022-11-03T02:55:15.767Z,19.03
2022-11-03T02:58:49.593Z,19.00
2022-11-03T03:02:08.789Z,19.04
2022-11-03T03:05:14.614Z,19.03
2022-11-03T03:08:16.943Z,19.01
2022-11-03T03:11:37.869Z,19.01
2022-11-03T03:14:44.457Z,19.15
2022-11-03T03:18:07.686Z,19.15
2022-11-03T03:21:23.675Z,19.17
2022-11-03T03:24:38.164Z,19.24
2022-11-03T03:27:43.796Z,19.22
2022-11-03T03:30:48.700Z,19.21
2022-11-03T03:33:59.671Z,19.14
2022-11-03T03:37:16.658Z,19.11
2022-11-03T03:40:27.539Z,18.89
2022-11-03T03:43:32.731Z,18.96
2022-11-03T03:46:49.938Z,19.01
2022-11-03T03:49:52.381Z,18.83
2022-11-03T03:53:02.077Z,18.91
2022-11-03T03:56:06.807Z,18.80
2022-11-03T03:59:09.085Z,18.86
2022-11-03T04:02:13.200Z,18.89
2022-11-03T04:05:15.478Z,18.87
2022-11-03T04:08:18.762Z,19.01
2022-11-03T04:11:40.005Z,19.07
2022-11-03T04:15:01.760Z,18.96
2022-11-03T04:18:23.592Z,18.86
2022-11-03T04:21:45.016Z,18.89
2022-11-03T04:24:52.044Z,18.66
2022-11-03T04:27:54.582Z,18.67
2022-11-03T04:30:59.600Z,18.60
2022-11-03T04:34:04.977Z,18.52
2022-11-03T04:37:12.632Z,18.46
2022-11-03T04:40:17.082Z,18.45
2022-11-03T04:43:21.628Z,18.46
2022-11-03T04:46:30.838Z,18.55
2022-11-03T04:49:32.740Z,18.50
2022-11-03T04:52:35.168Z,18.57
2022-11-03T04:55:37.473Z,18.60
2022-11-03T04:58:40.189Z,18.70
2022-11-03T05:01:45.503Z,18.79
2022-11-03T05:04:48.443Z,18.64
2022-11-03T05:07:58.933Z,18.73
2022-11-03T05:11:05.409Z,18.86
2022-11-03T05:14:32.666Z,18.79
2022-11-03T05:17:36.195Z,18.93
2022-11-03T05:20:46.815Z,18.74
2022-11-03T05:23:57.014Z,18.67
2022-11-03T05:27:00.310Z,18.67
2022-11-03T05:30:05.483Z,18.86
2022-11-03T05:33:20.424Z,18.93
2022-11-03T05:36:26.262Z,18.99
2022-11-03T05:39:48.579Z,19.01
2022-11-03T05:42:56.434Z,19.00
2022-11-03T05:46:02.401Z,19.01
2022-11-03T05:49:08.009Z,19.03
2022-11-03T05:52:25.828Z,18.97
2022-11-03T05:55:32.605Z,18.83
2022-11-03T05:58:39.822Z,18.84
2022-11-03T06:01:43.877Z,18.71
2022-11-03T06:04:46.711Z,18.73
2022-11-03T06:07:51.560Z,18.64
2022-11-03T06:10:56.054Z,18.69
2022-11-03T06:13:59.713Z,18.70
2022-11-03T06:17:08.851Z,18.64
2022-11-03T06:20:18.684Z,18.66
2022-11-03T06:23:22.511Z,18.77
2022-11-03T06:26:27.697Z,18.70
2022-11-03T06:29:33.587Z,18.86
2022-11-03T06:32:35.968Z,18.77
2022-11-03T06:35:38.935Z,18.80
2022-11-03T06:38:42.124Z,18.90
2022-11-03T06:41:44.382Z,18.91
2022-11-03T06:44:49.630Z,18.86
2022-11-03T06:47:53.667Z,18.80
2022-11-03T06:50:58.716Z,18.79
2022-11-03T06:54:07.240Z,18.80
2022-11-03T06:57:14.924Z,18.50
2022-11-03T07:00:34.022Z,18.49
2022-11-03T07:03:38.242Z,18.46
2022-11-03T07:06:41.181Z,18.64
2022-11-03T07:09:44.672Z,18.56
2022-11-03T07:12:46.993Z,18.60
2022-11-03T07:15:50.436Z,18.50
2022-11-03T07:18:52.619Z,18.35
2022-11-03T07:22:01.282Z,18.33
2022-11-03T07:25:04.392Z,18.67
2022-11-03T07:28:10.076Z,18.70
2022-11-03T07:31:25.521Z,18.56
2022-11-03T07:34:34.112Z,18.37
2022-11-03T07:37:36.872Z,18.30
2022-11-03T07:40:39.745Z,18.53
2022-11-03T07:43:42.024Z,18.45
2022-11-03T07:46:44.838Z,18.45
2022-11-03T07:49:49.014Z,18.36
2022-11-03T07:52:51.493Z,18.56
2022-11-03T07:55:56.851Z,18.47
2022-11-03T07:59:09.299Z,18.45
2022-11-03T08:02:22.882Z,18.60
2022-11-03T08:05:25.632Z,18.32
2022-11-03T08:08:27.785Z,18.16
2022-11-03T08:11:30.426Z,18.43
2022-11-03T08:14:34.646Z,18.84
2022-11-03T08:17:37.047Z,19.04
2022-11-03T08:20:39.177Z,19.21
2022-11-03T08:23:46.157Z,19.11
2022-11-03T08:26:50.334Z,19.06
2022-11-03T08:29:53.055Z,19.36
2022-11-03T08:32:55.973Z,19.25
2022-11-03T08:35:58.758Z,19.38
2022-11-03T08:39:00.952Z,19.51
2022-11-03T08:42:03.963Z,19.73
2022-11-03T08:45:06.688Z,19.76
2022-11-03T08:48:09.773Z,19.58
2022-11-03T08:51:14.485Z,19.71
2022-11-03T08:54:17.470Z,19.76
2022-11-03T08:57:19.906Z,19.86
2022-11-03T09:00:23.165Z,19.96
2022-11-03T09:03:25.379Z,19.86
2022-11-03T09:06:27.918Z,19.99
2022-11-03T09:12:53.821Z,20.15
2022-11-03T09:15:55.706Z,20.20
2022-11-03T09:18:58.186Z,20.23
2022-11-03T09:22:01.986Z,20.30
2022-11-03T09:25:05.943Z,20.29
2022-11-03T09:28:08.433Z,20.22
2022-11-03T09:31:11.402Z,20.34
2022-11-03T09:34:14.158Z,20.22
2022-11-03T09:37:17.553Z,20.33
2022-11-03T09:40:22.348Z,20.09
2022-11-03T09:43:25.003Z,20.32
2022-11-03T09:46:29.385Z,20.39
2022-11-03T09:49:33.989Z,20.34
2022-11-03T09:52:37.215Z,20.26
2022-11-03T09:55:40.270Z,20.34
2022-11-03T09:58:42.382Z,20.47
2022-11-03T10:01:49.122Z,20.63
2022-11-03T10:04:53.603Z,20.56
2022-11-03T10:08:05.205Z,20.58
2022-11-03T10:11:09.485Z,20.76
2022-11-03T10:14:16.097Z,20.63
2022-11-03T10:17:27.364Z,20.68
2022-11-03T10:20:29.732Z,20.81
2022-11-03T10:23:32.026Z,20.68
2022-11-03T10:26:44.484Z,20.47
2022-11-03T10:30:03.524Z,20.47
2022-11-03T10:33:44.693Z,20.48
2022-11-03T10:36:50.557Z,20.47
2022-11-03T10:40:13.249Z,20.43
2022-11-03T10:43:24.868Z,20.32
2022-11-03T10:49:50.569Z,20.19
2022-11-03T10:52:54.035Z,20.26
2022-11-03T10:55:57.519Z,20.27
2022-11-03T10:59:02.012Z,20.29
2022-11-03T11:02:14.092Z,20.30
2022-11-03T11:05:21.964Z,20.27
2022-11-03T11:08:24.723Z,20.26
2022-11-03T11:11:28.405Z,20.23
2022-11-03T11:14:30.603Z,20.22
2022-11-03T11:17:42.451Z,20.23
2022-11-03T11:20:44.659Z,20.23
2022-11-03T11:23:53.334Z,20.22
2022-11-03T11:26:56.045Z,20.19
2022-11-03T11:30:01.758Z,20.19
2022-11-03T11:33:23.457Z,19.99
2022-11-03T11:36:25.943Z,20.10
2022-11-03T11:39:28.313Z,20.03
2022-11-03T11:42:36.443Z,19.93
2022-11-03T11:46:24.134Z,20.05
2022-11-03T11:49:26.937Z,19.85
2022-11-03T11:52:30.659Z,20.09
2022-11-03T11:55:52.166Z,20.32
2022-11-03T11:58:57.636Z,20.36
2022-11-03T12:02:00.575Z,20.25
2022-11-03T12:05:04.058Z,20.33
2022-11-03T12:08:21.166Z,20.39
2022-11-03T12:11:46.106Z,20.46
2022-11-03T12:14:52.292Z,20.53
2022-11-03T12:17:55.337Z,20.39
2022-11-03T12:20:57.782Z,20.57
2022-11-03T12:24:00.095Z,20.47
2022-11-03T12:27:04.716Z,20.63
2022-11-03T12:30:19.409Z,20.67
2022-11-03T12:33:22.115Z,20.77
2022-11-03T12:36:24.937Z,20.76
2022-11-03T12:39:29.475Z,20.67
2022-11-03T12:42:31.818Z,20.87
2022-11-03T12:45:34.333Z,20.88
2022-11-03T12:48:37.664Z,20.92
2022-11-03T12:51:40.353Z,20.98
2022-11-03T12:54:44.063Z,20.98
2022-11-03T12:57:46.684Z,20.99
2022-11-03T13:00:53.811Z,20.98
2022-11-03T13:03:57.961Z,21.02
2022-11-03T13:07:00.322Z,21.04
2022-11-03T13:10:05.186Z,21.05
2022-11-03T13:13:07.754Z,21.09
2022-11-03T13:16:10.514Z,21.08
2022-11-03T13:19:12.884Z,21.09
2022-11-03T13:22:15.733Z,21.08
2022-11-03T13:25:19.006Z,21.09
2022-11-03T13:28:21.635Z,21.09
2022-11-03T13:31:23.883Z,21.19
2022-11-03T13:34:26.440Z,21.18
2022-11-03T13:37:29.841Z,21.19
2022-11-03T13:43:56.118Z,21.22
2022-11-03T13:46:58.806Z,21.27
2022-11-03T13:50:14.183Z,21.31
2022-11-03T14:00:06.195Z,21.24
2022-11-03T14:06:37.503Z,21.31
2022-11-03T14:09:39.935Z,21.32
2022-11-03T14:12:42.430Z,21.34
2022-11-03T14:15:44.495Z,21.32
2022-11-03T14:18:47.294Z,21.35
2022-11-03T14:21:49.439Z,21.37
2022-11-03T14:24:52.934Z,21.39
2022-11-03T14:27:55.614Z,21.35
2022-11-03T14:31:00.197Z,21.41
2022-11-03T14:34:02.629Z,21.37
2022-11-03T14:37:06.498Z,21.31
2022-11-03T14:40:29.791Z,21.37
2022-11-03T14:43:35.096Z,21.37
2022-11-03T14:46:37.305Z,21.39
2022-11-03T14:49:39.905Z,21.39
2022-11-03T14:52:41.852Z,21.22
2022-11-03T14:55:44.818Z,20.64
2022-11-03T14:58:47.121Z,21.07
2022-11-03T15:01:51.766Z,21.27
2022-11-03T15:04:54.019Z,21.31
2022-11-03T15:07:56.552Z,21.38
2022-11-03T15:10:58.669Z,21.38
2022-11-03T15:14:02.923Z,21.37
2022-11-03T15:17:05.118Z,21.41
2022-11-03T15:20:08.420Z,21.39
2022-11-03T15:26:34.124Z,21.32
2022-11-03T15:29:37.793Z,21.38
2022-11-03T15:33:17.975Z,21.43
2022-11-03T15:36:22.983Z,21.43
2022-11-03T15:39:25.752Z,21.46
2022-11-03T15:42:30.638Z,21.42
2022-11-03T15:45:34.336Z,21.45
2022-11-03T15:48:40.136Z,21.39
2022-11-03T15:51:43.432Z,21.39
2022-11-03T15:55:07.562Z,21.38
2022-11-03T16:01:59.700Z,21.41
2022-11-03T16:05:17.744Z,21.35
2022-11-03T16:08:51.296Z,21.14
2022-11-03T16:11:54.263Z,20.99
2022-11-03T16:14:56.334Z,20.99
2022-11-03T16:18:02.968Z,21.09
2022-11-03T16:21:05.245Z,21.18
2022-11-03T16:24:07.997Z,21.24
2022-11-03T16:30:51.238Z,21.25
2022-11-03T16:34:26.445Z,21.24
2022-11-03T16:38:04.815Z,21.25
2022-11-03T16:41:26.347Z,21.29
2022-11-03T16:44:33.031Z,21.28
2022-11-03T16:47:40.172Z,21.34
2022-11-03T16:50:45.099Z,21.32
2022-11-03T16:54:30.712Z,21.31
2022-11-03T16:57:36.153Z,21.32
2022-11-03T17:00:38.267Z,21.34
2022-11-03T17:03:46.561Z,21.34
2022-11-03T17:06:50.906Z,21.27
2022-11-03T17:09:53.721Z,21.25
2022-11-03T17:12:58.817Z,21.12
2022-11-03T17:16:01.674Z,20.99
2022-11-03T17:19:05.256Z,20.94
2022-11-03T17:22:07.997Z,20.83
2022-11-03T17:25:12.340Z,20.78
2022-11-03T17:28:15.586Z,20.76
2022-11-03T17:31:17.750Z,20.68
2022-11-03T17:34:24.019Z,20.61
2022-11-03T17:37:27.088Z,20.63
2022-11-03T17:40:30.189Z,20.58
2022-11-03T17:43:32.272Z,20.54
2022-11-03T17:46:34.930Z,20.51
2022-11-03T17:49:36.944Z,20.48
2022-11-03T17:52:43.740Z,20.48
2022-11-03T17:56:02.851Z,20.41
2022-11-03T17:59:15.788Z,20.19
2022-11-03T18:02:39.181Z,20.32
2022-11-03T18:05:42.650Z,20.39
2022-11-03T18:08:48.350Z,20.43
2022-11-03T18:12:09.254Z,20.39
2022-11-03T18:15:18.033Z,20.32
2022-11-03T18:18:43.745Z,20.27
2022-11-03T18:21:47.260Z,20.25
2022-11-03T18:24:52.856Z,20.22
2022-11-03T18:27:54.843Z,20.17
2022-11-03T18:30:57.459Z,20.09
2022-11-03T18:34:01.562Z,20.15
2022-11-03T18:37:04.150Z,20.17
2022-11-03T18:40:10.093Z,20.08
2022-11-03T18:43:24.603Z,20.12
2022-11-03T18:46:26.924Z,20.06
2022-11-03T18:49:33.645Z,20.12
2022-11-03T18:52:41.177Z,20.10
2022-11-03T18:55:44.056Z,20.05
2022-11-03T18:58:46.192Z,20.02
2022-11-03T19:01:48.901Z,20.09
2022-11-03T19:04:51.214Z,20.09
2022-11-03T19:07:54.799Z,20.09
2022-11-03T19:10:57.759Z,20.05
2022-11-03T19:14:02.101Z,20.03
2022-11-03T19:17:27.932Z,20.03
2022-11-03T19:20:30.703Z,19.97
2022-11-03T19:23:33.309Z,19.99
2022-11-03T19:26:46.583Z,20.00
2022-11-03T19:29:49.233Z,19.95
2022-11-03T19:32:54.819Z,19.92
2022-11-03T19:35:59.857Z,19.83
2022-11-03T19:39:02.825Z,19.82
2022-11-03T19:42:28.252Z,19.82
2022-11-03T19:45:31.676Z,19.66
2022-11-03T19:48:35.891Z,19.68
2022-11-03T19:51:40.735Z,19.69
2022-11-03T19:54:44.330Z,19.72
2022-11-03T19:57:47.290Z,19.72
2022-11-03T20:00:50.647Z,19.62
2022-11-03T20:03:54.042Z,19.59
2022-11-03T20:06:58.156Z,19.54
2022-11-03T20:10:01.908Z,19.58
2022-11-03T20:13:04.579Z,19.58
2022-11-03T20:16:16.330Z,19.55
2022-11-03T20:19:18.348Z,19.65
2022-11-03T20:22:29.739Z,19.63
2022-11-03T20:25:35.347Z,19.61
2022-11-03T20:28:38.348Z,19.54
2022-11-03T20:31:42.926Z,19.59
2022-11-03T20:34:46.776Z,19.62
2022-11-03T20:37:51.014Z,19.54
2022-11-03T20:41:19.254Z,19.59
2022-11-03T20:44:21.777Z,19.61
2022-11-03T20:47:24.636Z,19.62
2022-11-03T20:50:26.630Z,19.63
2022-11-03T20:53:29.097Z,19.63
2022-11-03T20:56:31.288Z,19.66
2022-11-03T20:59:37.757Z,19.68
2022-11-03T21:02:41.633Z,19.72
2022-11-03T21:05:44.476Z,19.73
2022-11-03T21:09:13.347Z,19.76
2022-11-03T21:16:24.218Z,19.81
2022-11-03T21:19:48.867Z,19.73
2022-11-03T21:22:54.076Z,19.61
2022-11-03T21:25:58.249Z,19.24
2022-11-03T21:29:00.198Z,19.57
2022-11-03T21:32:02.697Z,19.51
2022-11-03T21:35:06.473Z,19.18
2022-11-03T21:38:10.496Z,19.47
2022-11-03T21:41:31.335Z,19.55
2022-11-03T21:44:35.199Z,19.30
2022-11-03T21:47:37.137Z,19.36
2022-11-03T21:50:39.706Z,19.50
2022-11-03T21:53:42.039Z,19.57
2022-11-03T21:56:44.582Z,19.62
2022-11-03T21:59:46.901Z,19.62
2022-11-03T22:02:49.460Z,19.48
2022-11-03T22:05:51.705Z,19.20
2022-11-03T22:08:57.730Z,18.56
2022-11-03T22:12:00.155Z,18.26
2022-11-03T22:15:21.742Z,17.70
2022-11-03T22:18:24.443Z,14.75
2022-11-03T22:21:45.870Z,13.04
2022-11-03T22:25:06.533Z,12.27
2022-11-03T22:28:14.175Z,11.90
2022-11-03T22:31:35.208Z,12.01
2022-11-03T22:34:56.286Z,16.24
2022-11-03T22:38:18.790Z,17.89
2022-11-03T22:41:39.723Z,18.63
2022-11-03T22:45:00.192Z,18.81
2022-11-03T22:48:04.815Z,18.87
2022-11-03T22:51:09.901Z,18.89
2022-11-03T22:54:12.685Z,18.93
2022-11-03T22:57:14.911Z,19.03
2022-11-03T23:00:18.510Z,19.12
2022-11-03T23:03:20.779Z,19.15
2022-11-03T23:06:27.321Z,19.21
2022-11-03T23:09:29.580Z,19.32
2022-11-03T23:12:32.230Z,19.38
2022-11-03T23:15:34.320Z,19.38
2022-11-03T23:18:55.131Z,19.42
2022-11-03T23:21:57.916Z,19.52
2022-11-03T23:25:00.620Z,19.58
2022-11-03T23:28:02.922Z,19.62
2022-11-03T23:31:05.528Z,19.68
2022-11-03T23:34:09.204Z,19.72
2022-11-03T23:37:11.527Z,19.75
2022-11-03T23:40:17.227Z,19.79
2022-11-03T23:43:23.403Z,19.85
2022-11-03T23:46:46.419Z,19.86
2022-11-03T23:49:48.884Z,19.59
2022-11-03T23:52:50.783Z,19.99
2022-11-03T23:56:11.822Z,20.05
2022-11-03T23:59:17.020Z,20.06
